createdAt,value
2022-11-02T00:01:20.339Z,99741.09
2022-11-02T00:02:53.815Z,99743.81
2022-11-02T00:04:27.128Z,99741.22
2022-11-02T00:06:00.252Z,99737.75
2022-11-02T00:07:32.460Z,99739.53
2022-11-02T00:09:07.019Z,99741.28
2022-11-02T00:10:40.415Z,99741.41
2022-11-02T00:12:13.712Z,99741.50
2022-11-02T00:13:46.976Z,99738.09
2022-11-02T00:15:20.752Z,99747.75
2022-11-02T00:16:54.399Z,99729.34
2022-11-02T00:18:27.667Z,99749.66
2022-11-02T00:20:00.242Z,99729.41
2022-11-02T00:21:33.755Z,99739.03
2022-11-02T00:23:07.936Z,99733.69
2022-11-02T00:24:42.883Z,99746.81
2022-11-02T00:26:16.859Z,99732.72
2022-11-02T00:27:50.553Z,99731.94
2022-11-02T00:29:24.443Z,99731.13
2022-11-02T00:30:58.052Z,99735.53
2022-11-02T00:32:31.254Z,99731.06
2022-11-02T00:34:04.435Z,99722.28
2022-11-02T00:35:38.528Z,99732.81
2022-11-02T00:37:12.886Z,99733.66
2022-11-02T00:38:46.115Z,99728.50
2022-11-02T00:40:20.903Z,99722.41
2022-11-02T00:41:54.250Z,99726.88
2022-11-02T00:43:27.356Z,99733.97
2022-11-02T00:45:00.501Z,99724.53
2022-11-02T00:46:33.727Z,99729.00
2022-11-02T00:48:08.193Z,99727.22
2022-11-02T00:49:41.774Z,99729.94
2022-11-02T00:51:15.653Z,99731.78
2022-11-02T00:52:49.929Z,99724.84
2022-11-02T00:54:27.554Z,99728.41
2022-11-02T00:56:03.610Z,99714.63
2022-11-02T00:57:36.999Z,99723.41
2022-11-02T00:59:10.653Z,99726.09
2022-11-02T01:00:44.015Z,99722.53
2022-11-02T01:02:17.393Z,99717.34
2022-11-02T01:03:50.692Z,99715.63
2022-11-02T01:05:23.904Z,99727.00
2022-11-02T01:06:57.164Z,99725.19
2022-11-02T01:08:30.390Z,99713.81
2022-11-02T01:10:05.377Z,99712.91
2022-11-02T01:11:41.659Z,99714.72
2022-11-02T01:13:15.215Z,99710.31
2022-11-02T01:14:48.992Z,99705.97
2022-11-02T01:16:22.587Z,99721.72
2022-11-02T01:17:56.479Z,99705.97
2022-11-02T01:19:29.858Z,99707.84
2022-11-02T01:21:03.872Z,99709.63
2022-11-02T01:22:37.033Z,99702.63
2022-11-02T01:24:10.461Z,99707.03
2022-11-02T01:25:46.977Z,99706.19
2022-11-02T01:27:21.548Z,99710.66
2022-11-02T01:28:55.013Z,99708.16
2022-11-02T01:30:28.193Z,99702.88
2022-11-02T01:32:01.530Z,99701.25
2022-11-02T01:33:34.955Z,99703.09
2022-11-02T01:35:10.387Z,99703.19
2022-11-02T01:36:46.598Z,99707.56
2022-11-02T01:38:20.097Z,99704.13
2022-11-02T01:39:54.191Z,99706.69
2022-11-02T01:41:27.359Z,99699.63
2022-11-02T01:43:00.977Z,99707.38
2022-11-02T01:44:36.712Z,99705.56
2022-11-02T01:46:17.899Z,99699.41
2022-11-02T01:47:51.119Z,99705.47
2022-11-02T01:49:24.188Z,99704.66
2022-11-02T01:50:58.815Z,99703.88
2022-11-02T01:52:35.540Z,99697.78
2022-11-02T01:54:12.465Z,99698.72
2022-11-02T01:55:45.915Z,99690.84
2022-11-02T01:57:22.404Z,99700.44
2022-11-02T01:59:02.627Z,99697.78
2022-11-02T02:00:35.846Z,99700.38
2022-11-02T02:02:14.728Z,99689.00
2022-11-02T02:03:49.645Z,99694.19
2022-11-02T02:05:25.572Z,99695.13
2022-11-02T02:07:00.295Z,99689.16
2022-11-02T02:08:34.147Z,99694.47
2022-11-02T02:10:07.225Z,99702.44
2022-11-02T02:11:41.777Z,99710.31
2022-11-02T02:13:16.995Z,99693.72
2022-11-02T02:14:52.364Z,99689.41
2022-11-02T02:16:36.547Z,99697.28
2022-11-02T02:18:17.082Z,99694.66
2022-11-02T02:19:56.622Z,99699.06
2022-11-02T02:21:41.674Z,99682.56
2022-11-02T02:23:39.362Z,99696.56
2022-11-02T02:25:43.463Z,99702.69
2022-11-02T02:27:21.882Z,99695.72
2022-11-02T02:29:02.768Z,99698.31
2022-11-02T02:30:41.893Z,99686.19
2022-11-02T02:32:19.600Z,99696.56
2022-11-02T02:33:57.555Z,99700.06
2022-11-02T02:35:39.867Z,99695.72
2022-11-02T02:37:20.204Z,99698.41
2022-11-02T02:39:01.935Z,99695.03
2022-11-02T02:40:38.626Z,99695.09
2022-11-02T02:42:16.246Z,99700.38
2022-11-02T02:43:53.341Z,99699.59
2022-11-02T02:45:34.548Z,99699.63
2022-11-02T02:47:15.300Z,99695.31
2022-11-02T02:48:49.934Z,99695.34
2022-11-02T02:50:27.083Z,99699.75
2022-11-02T02:52:01.636Z,99692.75
2022-11-02T02:53:39.879Z,99702.47
2022-11-02T02:55:17.856Z,99698.13
2022-11-02T02:56:56.147Z,99696.38
2022-11-02T02:58:32.082Z,99694.69
2022-11-02T03:00:06.229Z,99700.78
2022-11-02T03:01:46.100Z,99705.16
2022-11-02T03:03:23.728Z,99694.66
2022-11-02T03:04:56.114Z,99702.66
2022-11-02T03:06:32.185Z,99707.06
2022-11-02T03:08:12.842Z,99694.81
2022-11-02T03:09:52.102Z,99705.38
2022-11-02T03:11:27.190Z,99707.97
2022-11-02T03:13:11.840Z,99706.16
2022-11-02T03:14:57.012Z,99700.88
2022-11-02T03:16:45.264Z,99707.03
2022-11-02T03:18:35.470Z,99699.13
2022-11-02T03:20:18.310Z,99705.28
2022-11-02T03:22:00.224Z,99692.19
2022-11-02T03:23:38.640Z,99707.16
2022-11-02T03:25:19.124Z,99709.78
2022-11-02T03:27:06.555Z,99709.78
2022-11-02T03:28:53.578Z,99705.47
2022-11-02T03:30:30.579Z,99711.69
2022-11-02T03:32:10.477Z,99701.34
2022-11-02T03:33:49.491Z,99700.69
2022-11-02T03:35:30.157Z,99712.16
2022-11-02T03:37:11.992Z,99714.00
2022-11-02T03:38:48.931Z,99712.31
2022-11-02T03:40:28.441Z,99705.41
2022-11-02T03:42:05.062Z,99708.94
2022-11-02T03:43:43.097Z,99701.13
2022-11-02T03:45:19.988Z,99702.03
2022-11-02T03:46:59.588Z,99714.19
2022-11-02T03:48:39.559Z,99711.53
2022-11-02T03:50:17.016Z,99714.19
2022-11-02T03:51:51.259Z,99713.41
2022-11-02T03:53:32.587Z,99710.78
2022-11-02T03:55:09.842Z,99709.03
2022-11-02T03:56:47.885Z,99703.75
2022-11-02T03:58:21.084Z,99702.91
2022-11-02T03:59:54.394Z,99711.63
2022-11-02T04:01:28.897Z,99709.91
2022-11-02T04:03:04.572Z,99702.00
2022-11-02T04:04:51.170Z,99703.69
2022-11-02T04:06:27.986Z,99707.13
2022-11-02T04:08:19.483Z,99705.38
2022-11-02T04:09:53.008Z,99695.78
2022-11-02T04:11:44.328Z,99701.94
2022-11-02T04:13:37.616Z,99703.72
2022-11-02T04:15:11.612Z,99710.66
2022-11-02T04:16:43.972Z,99702.81
2022-11-02T04:18:40.291Z,99704.59
2022-11-02T04:20:15.307Z,99703.72
2022-11-02T04:22:03.271Z,99692.44
2022-11-02T04:23:55.925Z,99710.75
2022-11-02T04:25:29.477Z,99706.38
2022-11-02T04:27:34.733Z,99702.06
2022-11-02T04:29:09.209Z,99704.72
2022-11-02T04:30:43.081Z,99702.09
2022-11-02T04:32:36.848Z,99707.31
2022-11-02T04:34:10.984Z,99704.72
2022-11-02T04:35:45.115Z,99703.84
2022-11-02T04:37:33.059Z,99704.69
2022-11-02T04:39:06.368Z,99702.91
2022-11-02T04:40:39.197Z,99698.47
2022-11-02T04:42:12.870Z,99699.34
2022-11-02T04:43:49.387Z,99700.19
2022-11-02T04:45:24.763Z,99705.41
2022-11-02T04:46:59.017Z,99701.03
2022-11-02T04:48:36.228Z,99708.94
2022-11-02T04:50:10.119Z,99700.19
2022-11-02T04:51:47.309Z,99705.41
2022-11-02T04:53:24.966Z,99707.13
2022-11-02T04:54:59.131Z,99707.09
2022-11-02T04:56:32.547Z,99703.63
2022-11-02T04:58:06.294Z,99707.09
2022-11-02T04:59:39.718Z,99706.28
2022-11-02T05:01:16.838Z,99701.00
2022-11-02T05:02:51.598Z,99709.69
2022-11-02T05:04:27.278Z,99700.91
2022-11-02T05:06:01.392Z,99702.69
2022-11-02T05:07:36.957Z,99693.16
2022-11-02T05:09:11.411Z,99714.16
2022-11-02T05:10:48.512Z,99713.28
2022-11-02T05:12:26.614Z,99709.00
2022-11-02T05:14:02.396Z,99711.72
2022-11-02T05:15:36.429Z,99712.59
2022-11-02T05:17:13.442Z,99717.00
2022-11-02T05:18:46.771Z,99713.44
2022-11-02T05:20:23.526Z,99711.72
2022-11-02T05:21:56.670Z,99710.81
2022-11-02T05:23:32.716Z,99717.78
2022-11-02T05:25:07.363Z,99718.56
2022-11-02T05:26:40.769Z,99717.59
2022-11-02T05:28:14.844Z,99729.78
2022-11-02T05:29:48.352Z,99720.97
2022-11-02T05:31:22.442Z,99723.59
2022-11-02T05:32:58.006Z,99729.66
2022-11-02T05:34:31.359Z,99732.31
2022-11-02T05:36:06.593Z,99723.53
2022-11-02T05:37:42.398Z,99728.84
2022-11-02T05:39:17.151Z,99722.78
2022-11-02T05:40:53.638Z,99733.31
2022-11-02T05:42:27.266Z,99724.53
2022-11-02T05:44:00.737Z,99733.34
2022-11-02T05:45:35.980Z,99730.75
2022-11-02T05:47:09.146Z,99733.31
2022-11-02T05:48:42.613Z,99728.00
2022-11-02T05:50:15.897Z,99738.31
2022-11-02T05:51:49.315Z,99740.84
2022-11-02T05:53:22.431Z,99734.56
2022-11-02T05:54:56.975Z,99727.53
2022-11-02T05:56:30.149Z,99739.56
2022-11-02T05:58:02.591Z,99747.34
2022-11-02T05:59:35.798Z,99737.66
2022-11-02T06:01:10.035Z,99742.94
2022-11-02T06:02:43.259Z,99731.50
2022-11-02T06:04:16.529Z,99745.34
2022-11-02T06:05:48.727Z,99747.91
2022-11-02T06:07:22.072Z,99748.63
2022-11-02T06:08:55.890Z,99739.75
2022-11-02T06:10:31.756Z,99737.06
2022-11-02T06:12:05.361Z,99743.84
2022-11-02T06:13:39.059Z,99742.06
2022-11-02T06:15:12.365Z,99745.38
2022-11-02T06:16:45.843Z,99747.81
2022-11-02T06:18:18.076Z,99740.69
2022-11-02T06:19:51.227Z,99734.34
2022-11-02T06:21:24.527Z,99736.81
2022-11-02T06:22:57.915Z,99740.13
2022-11-02T06:24:31.136Z,99734.28
2022-11-02T06:26:05.770Z,99749.28
2022-11-02T06:27:42.153Z,99744.91
2022-11-02T06:29:18.365Z,99740.38
2022-11-02T06:30:52.045Z,99749.78
2022-11-02T06:32:25.331Z,99740.53
2022-11-02T06:33:58.470Z,99736.66
2022-11-02T06:35:31.856Z,99734.50
2022-11-02T06:37:05.117Z,99747.41
2022-11-02T06:38:38.737Z,99739.19
2022-11-02T06:40:13.621Z,99741.59
2022-11-02T06:41:49.769Z,99729.72
2022-11-02T06:43:23.308Z,99737.91
2022-11-02T06:45:02.369Z,99732.19
2022-11-02T06:46:35.522Z,99732.53
2022-11-02T06:48:09.009Z,99724.44
2022-11-02T06:49:42.228Z,99726.97
2022-11-02T06:51:15.623Z,99722.44
2022-11-02T06:52:49.540Z,99722.47
2022-11-02T06:54:23.031Z,99721.94
2022-11-02T06:55:57.666Z,99715.13
2022-11-02T06:57:37.034Z,99708.34
2022-11-02T06:59:10.495Z,99715.41
2022-11-02T07:00:43.901Z,99712.59
2022-11-02T07:02:17.205Z,99695.41
2022-11-02T07:03:50.456Z,99709.97
2022-11-02T07:05:23.585Z,99707.28
2022-11-02T07:06:57.004Z,99711.53
2022-11-02T07:08:30.677Z,99706.66
2022-11-02T07:10:04.779Z,99702.59
2022-11-02T07:11:37.922Z,99681.81
2022-11-02T07:13:12.941Z,99702.88
2022-11-02T07:14:46.113Z,99710.09
2022-11-02T07:16:19.343Z,99707.16
2022-11-02T07:17:53.464Z,99707.63
2022-11-02T07:19:27.145Z,99692.19
2022-11-02T07:21:00.463Z,99695.94
2022-11-02T07:22:33.798Z,99694.16
2022-11-02T07:24:07.815Z,99693.00
2022-11-02T07:25:41.611Z,99692.38
2022-11-02T07:27:14.839Z,99689.19
2022-11-02T07:28:49.399Z,99694.66
2022-11-02T07:30:22.559Z,99693.16
2022-11-02T07:31:56.089Z,99686.53
2022-11-02T07:33:29.281Z,99688.81
2022-11-02T07:35:02.411Z,99684.22
2022-11-02T07:36:35.761Z,99674.75
2022-11-02T07:38:09.353Z,99675.69
2022-11-02T07:39:42.559Z,99674.59
2022-11-02T07:41:15.737Z,99677.66
2022-11-02T07:42:48.917Z,99678.16
2022-11-02T07:44:26.721Z,99673.13
2022-11-02T07:45:59.887Z,99674.56
2022-11-02T07:47:33.311Z,99670.47
2022-11-02T07:49:06.485Z,99672.03
2022-11-02T07:50:39.872Z,99673.44
2022-11-02T07:52:13.037Z,99660.31
2022-11-02T07:53:46.224Z,99662.50
2022-11-02T07:55:21.626Z,99664.31
2022-11-02T07:56:54.948Z,99671.69
2022-11-02T07:58:28.106Z,99668.25
2022-11-02T08:00:02.826Z,99662.94
2022-11-02T08:01:44.773Z,99670.13
2022-11-02T08:03:18.121Z,99661.22
2022-11-02T08:04:51.379Z,99652.94
2022-11-02T08:06:24.544Z,99662.69
2022-11-02T08:07:59.064Z,99657.38
2022-11-02T08:09:32.531Z,99649.78
2022-11-02T08:11:08.045Z,99654.53
2022-11-02T08:12:41.407Z,99653.66
2022-11-02T08:14:14.688Z,99648.69
2022-11-02T08:15:52.179Z,99656.66
2022-11-02T08:17:25.528Z,99645.00
2022-11-02T08:18:59.632Z,99644.97
2022-11-02T08:20:33.873Z,99648.06
2022-11-02T08:22:07.330Z,99649.28
2022-11-02T08:23:40.498Z,99647.16
2022-11-02T08:26:54.800Z,99640.66
2022-11-02T08:28:31.697Z,99639.09
2022-11-02T08:30:06.509Z,99637.16
2022-11-02T08:31:41.176Z,99633.75
2022-11-02T08:33:15.955Z,99631.41
2022-11-02T08:34:49.368Z,99633.28
2022-11-02T08:36:22.739Z,99632.66
2022-11-02T08:37:56.821Z,99627.13
2022-11-02T08:39:30.177Z,99627.56
2022-11-02T08:41:03.408Z,99625.31
2022-11-02T08:42:39.040Z,99624.84
2022-11-02T08:44:12.220Z,99619.44
2022-11-02T08:46:13.838Z,99624.84
2022-11-02T08:47:43.273Z,99610.84
2022-11-02T08:49:18.817Z,99617.16
2022-11-02T08:50:52.063Z,99615.53
2022-11-02T08:52:25.231Z,99623.50
2022-11-02T08:53:58.433Z,99620.25
2022-11-02T08:55:32.039Z,99625.56
2022-11-02T08:57:05.282Z,99617.13
2022-11-02T08:58:38.399Z,99613.56
2022-11-02T09:00:12.890Z,99608.75
2022-11-02T09:01:46.285Z,99613.38
2022-11-02T09:03:26.159Z,99605.69
2022-11-02T09:05:00.193Z,99601.41
2022-11-02T09:06:33.380Z,99597.81
2022-11-02T09:08:08.616Z,99603.97
2022-11-02T09:09:41.971Z,99598.91
2022-11-02T09:11:15.303Z,99600.22
2022-11-02T09:12:48.420Z,99592.72
2022-11-02T09:14:22.202Z,99592.06
2022-11-02T09:15:57.239Z,99589.25
2022-11-02T09:17:30.542Z,99591.16
2022-11-02T09:19:05.349Z,99593.00
2022-11-02T09:20:38.836Z,99585.97
2022-11-02T09:22:12.039Z,99583.72
2022-11-02T09:23:48.396Z,99581.63
2022-11-02T09:25:21.745Z,99571.44
2022-11-02T09:26:54.963Z,99575.84
2022-11-02T09:28:28.181Z,99573.53
2022-11-02T09:30:01.392Z,99570.41
2022-11-02T09:31:34.802Z,99571.91
2022-11-02T09:33:08.856Z,99568.03
2022-11-02T09:34:43.612Z,99559.56
2022-11-02T09:36:16.818Z,99560.78
2022-11-02T09:37:51.157Z,99559.28
2022-11-02T09:39:25.147Z,99555.38
2022-11-02T09:41:09.888Z,99553.22
2022-11-02T09:42:54.735Z,99550.00
2022-11-02T09:44:36.668Z,99551.47
2022-11-02T09:46:13.537Z,99550.66
2022-11-02T09:49:47.234Z,99536.06
2022-11-02T09:51:23.499Z,99542.69
2022-11-02T09:53:01.949Z,99543.81
2022-11-02T09:54:41.811Z,99540.25
2022-11-02T09:56:17.636Z,99537.84
2022-11-02T09:57:54.757Z,99535.28
2022-11-02T09:59:28.895Z,99520.25
2022-11-02T10:01:18.373Z,99530.91
2022-11-02T10:03:01.944Z,99527.63
2022-11-02T10:05:00.749Z,99527.13
2022-11-02T10:06:38.458Z,99509.00
2022-11-02T10:08:36.143Z,99521.25
2022-11-02T10:10:16.076Z,99516.09
2022-11-02T10:11:56.431Z,99506.56
2022-11-02T10:13:42.095Z,99502.84
2022-11-02T10:15:18.537Z,99506.28
2022-11-02T10:16:58.775Z,99508.66
2022-11-02T10:18:32.612Z,99507.66
2022-11-02T10:20:18.213Z,99501.53
2022-11-02T10:21:57.516Z,99500.78
2022-11-02T10:23:33.877Z,99503.53
2022-11-02T10:25:09.140Z,99498.25
2022-11-02T10:26:43.633Z,99498.19
2022-11-02T10:28:22.391Z,99493.44
2022-11-02T10:30:00.934Z,99491.69
2022-11-02T10:31:35.650Z,99488.03
2022-11-02T10:33:16.243Z,99487.00
2022-11-02T10:34:58.857Z,99485.06
2022-11-02T10:36:53.083Z,99481.50
2022-11-02T10:38:39.243Z,99478.38
2022-11-02T10:40:24.126Z,99472.16
2022-11-02T10:42:19.547Z,99468.94
2022-11-02T10:44:09.127Z,99472.84
2022-11-02T10:46:16.503Z,99458.91
2022-11-02T10:48:04.466Z,99463.19
2022-11-02T10:50:11.941Z,99464.03
2022-11-02T10:51:47.072Z,99453.06
2022-11-02T10:55:25.802Z,99448.38
2022-11-02T10:57:00.214Z,99445.34
2022-11-02T10:58:35.102Z,99459.72
2022-11-02T11:00:24.168Z,99454.66
2022-11-02T11:02:13.635Z,99440.84
2022-11-02T11:03:58.817Z,99445.38
2022-11-02T11:05:32.807Z,99442.31
2022-11-02T11:07:14.506Z,99448.69
2022-11-02T11:08:49.933Z,99449.50
2022-11-02T11:10:25.604Z,99446.50
2022-11-02T11:12:01.184Z,99444.47
2022-11-02T11:15:48.366Z,99436.88
2022-11-02T11:19:39.996Z,99434.31
2022-11-02T11:21:14.854Z,99437.72
2022-11-02T11:23:09.609Z,99425.47
2022-11-02T11:24:42.882Z,99430.31
2022-11-02T11:26:29.342Z,99435.72
2022-11-02T11:28:03.034Z,99430.22
2022-11-02T11:29:40.324Z,99433.06
2022-11-02T11:31:16.847Z,99434.22
2022-11-02T11:32:50.250Z,99424.69
2022-11-02T11:34:27.420Z,99423.38
2022-11-02T11:36:01.303Z,99421.38
2022-11-02T11:37:34.947Z,99412.25
2022-11-02T11:39:28.752Z,99425.97
2022-11-02T11:41:03.552Z,99429.69
2022-11-02T11:42:38.428Z,99413.09
2022-11-02T11:44:15.060Z,99420.53
2022-11-02T11:46:03.732Z,99415.13
2022-11-02T11:47:41.519Z,99413.41
2022-11-02T11:49:35.855Z,99409.38
2022-11-02T11:51:36.897Z,99407.66
2022-11-02T11:53:17.607Z,99411.66
2022-11-02T11:54:59.982Z,99413.63
2022-11-02T11:56:33.782Z,99394.63
2022-11-02T11:58:08.428Z,99403.28
2022-11-02T11:59:53.069Z,99404.16
2022-11-02T12:01:26.737Z,99406.16
2022-11-02T12:03:06.197Z,99394.63
2022-11-02T12:04:40.753Z,99402.44
2022-11-02T12:06:21.599Z,99392.91
2022-11-02T12:08:21.567Z,99397.31
2022-11-02T12:10:07.595Z,99396.72
2022-11-02T12:11:54.778Z,99391.81
2022-11-02T12:13:53.050Z,99400.41
2022-11-02T12:15:39.773Z,99392.34
2022-11-02T12:17:28.978Z,99395.47
2022-11-02T12:19:19.750Z,99388.34
2022-11-02T12:21:05.701Z,99381.75
2022-11-02T12:22:46.185Z,99382.56
2022-11-02T12:24:58.543Z,99383.22
2022-11-02T12:26:44.889Z,99384.59
2022-11-02T12:28:30.003Z,99382.56
2022-11-02T12:30:14.673Z,99384.31
2022-11-02T12:32:00.652Z,99384.53
2022-11-02T12:33:47.600Z,99375.50
2022-11-02T12:35:40.256Z,99372.78
2022-11-02T12:37:40.032Z,99375.44
2022-11-02T12:39:22.933Z,99385.69
2022-11-02T12:41:03.451Z,99380.41
2022-11-02T12:42:43.840Z,99379.25
2022-11-02T12:44:38.565Z,99376.53
2022-11-02T12:46:32.807Z,99381.97
2022-11-02T12:48:15.837Z,99373.44
2022-11-02T12:49:56.786Z,99364.28
2022-11-02T12:51:35.163Z,99374.84
2022-11-02T12:53:23.133Z,99356.38
2022-11-02T12:54:58.966Z,99369.41
2022-11-02T12:56:40.517Z,99369.00
2022-11-02T12:58:21.720Z,99364.06
2022-11-02T13:00:00.898Z,99363.50
2022-11-02T13:01:40.828Z,99361.50
2022-11-02T13:03:27.539Z,99367.44
2022-11-02T13:05:05.427Z,99358.13
2022-11-02T13:06:42.024Z,99361.25
2022-11-02T13:08:19.103Z,99367.66
2022-11-02T13:09:57.583Z,99357.16
2022-11-02T13:11:35.395Z,99348.59
2022-11-02T13:13:15.169Z,99360.84
2022-11-02T13:14:52.181Z,99361.72
2022-11-02T13:16:34.336Z,99365.44
2022-11-02T13:18:14.281Z,99358.47
2022-11-02T13:19:53.302Z,99358.22
2022-11-02T13:21:38.498Z,99351.56
2022-11-02T13:23:24.357Z,99352.88
2022-11-02T13:25:03.684Z,99355.59
2022-11-02T13:26:41.541Z,99355.59
2022-11-02T13:28:19.416Z,99334.53
2022-11-02T13:29:57.950Z,99349.34
2022-11-02T13:31:35.778Z,99344.72
2022-11-02T13:33:17.108Z,99349.34
2022-11-02T13:34:53.772Z,99347.06
2022-11-02T13:36:27.277Z,99351.41
2022-11-02T13:38:07.054Z,99344.25
2022-11-02T13:39:43.418Z,99338.28
2022-11-02T13:41:31.104Z,99341.78
2022-11-02T13:43:39.195Z,99347.50
2022-11-02T13:47:28.802Z,99346.84
2022-11-02T13:49:06.147Z,99344.63
2022-11-02T13:50:43.862Z,99349.34
2022-11-02T13:52:20.383Z,99350.50
2022-11-02T13:53:59.782Z,99348.09
2022-11-02T13:55:45.835Z,99345.69
2022-11-02T13:57:32.548Z,99352.25
2022-11-02T13:59:09.395Z,99341.72
2022-11-02T14:00:46.609Z,99333.19
2022-11-02T14:02:24.401Z,99342.00
2022-11-02T14:04:03.061Z,99343.19
2022-11-02T14:05:42.307Z,99340.91
2022-11-02T14:07:24.595Z,99337.81
2022-11-02T14:09:00.745Z,99344.41
2022-11-02T14:10:37.880Z,99348.91
2022-11-02T14:12:40.614Z,99345.81
2022-11-02T14:14:31.513Z,99346.41
2022-11-02T14:16:06.620Z,99345.44
2022-11-02T14:18:11.467Z,99340.09
2022-11-02T14:19:56.942Z,99342.38
2022-11-02T14:21:44.830Z,99345.53
2022-11-02T14:23:40.891Z,99344.41
2022-11-02T14:25:19.307Z,99337.50
2022-11-02T14:26:56.848Z,99345.28
2022-11-02T14:28:35.974Z,99350.72
2022-11-02T14:30:38.883Z,99343.75
2022-11-02T14:32:19.821Z,99348.19
2022-11-02T14:34:13.888Z,99341.97
2022-11-02T14:35:55.731Z,99346.28
2022-11-02T14:37:48.805Z,99342.31
2022-11-02T14:39:32.661Z,99348.31
2022-11-02T14:41:23.317Z,99346.34
2022-11-02T14:43:32.020Z,99345.19
2022-11-02T14:45:23.348Z,99343.19
2022-11-02T14:46:59.136Z,99337.53
2022-11-02T14:48:46.051Z,99342.81
2022-11-02T14:50:21.652Z,99334.13
2022-11-02T14:52:04.531Z,99345.81
2022-11-02T14:53:38.912Z,99346.97
2022-11-02T14:55:24.820Z,99343.78
2022-11-02T14:57:04.266Z,99343.94
2022-11-02T14:58:41.524Z,99350.59
2022-11-02T15:00:21.062Z,99343.16
2022-11-02T15:01:58.496Z,99346.28
2022-11-02T15:03:38.447Z,99345.63
2022-11-02T15:05:24.475Z,99345.31
2022-11-02T15:07:00.791Z,99342.69
2022-11-02T15:08:36.505Z,99352.59
2022-11-02T15:10:48.319Z,99340.31
2022-11-02T15:12:30.570Z,99344.19
2022-11-02T15:14:04.134Z,99346.22
2022-11-02T15:15:37.888Z,99346.03
2022-11-02T15:17:44.289Z,99351.75
2022-11-02T15:19:39.643Z,99343.25
2022-11-02T15:21:30.891Z,99347.97
2022-11-02T15:23:28.507Z,99349.94
2022-11-02T15:25:13.108Z,99362.72
2022-11-02T15:26:51.070Z,99359.34
2022-11-02T15:28:26.702Z,99360.31
2022-11-02T15:30:02.539Z,99361.22
2022-11-02T15:31:36.797Z,99368.19
2022-11-02T15:33:20.951Z,99367.25
2022-11-02T15:34:58.126Z,99373.31
2022-11-02T15:36:36.721Z,99362.56
2022-11-02T15:38:17.763Z,99365.72
2022-11-02T15:39:52.989Z,99370.25
2022-11-02T15:41:33.118Z,99370.13
2022-11-02T15:43:19.649Z,99378.16
2022-11-02T15:45:46.845Z,99375.44
2022-11-02T15:47:27.149Z,99374.84
2022-11-02T15:49:12.977Z,99382.66
2022-11-02T15:50:56.043Z,99381.66
2022-11-02T15:53:02.023Z,99382.13
2022-11-02T15:54:53.798Z,99388.31
2022-11-02T15:56:40.110Z,99389.09
2022-11-02T15:58:23.925Z,99395.16
2022-11-02T16:00:08.087Z,99389.38
2022-11-02T16:01:44.843Z,99395.81
2022-11-02T16:03:19.385Z,99392.00
2022-11-02T16:04:56.167Z,99399.72
2022-11-02T16:06:35.995Z,99398.69
2022-11-02T16:08:23.460Z,99402.28
2022-11-02T16:10:12.826Z,99404.72
2022-11-02T16:11:45.991Z,99405.28
2022-11-02T16:13:22.224Z,99401.31
2022-11-02T16:14:59.011Z,99404.66
2022-11-02T16:16:35.914Z,99408.88
2022-11-02T16:18:27.055Z,99415.44
2022-11-02T16:20:11.991Z,99414.13
2022-11-02T16:21:46.630Z,99404.28
2022-11-02T16:23:25.343Z,99411.53
2022-11-02T16:24:58.624Z,99416.38
2022-11-02T16:26:31.837Z,99417.53
2022-11-02T16:28:15.211Z,99404.31
2022-11-02T16:29:49.668Z,99420.28
2022-11-02T16:31:25.203Z,99424.88
2022-11-02T16:33:02.058Z,99422.63
2022-11-02T16:34:35.454Z,99423.44
2022-11-02T16:36:09.980Z,99422.88
2022-11-02T16:37:45.515Z,99436.47
2022-11-02T16:39:23.751Z,99422.63
2022-11-02T16:40:57.214Z,99430.94
2022-11-02T16:42:30.432Z,99437.44
2022-11-02T16:44:10.027Z,99438.50
2022-11-02T16:45:44.213Z,99430.41
2022-11-02T16:47:19.125Z,99437.78
2022-11-02T16:49:04.195Z,99446.03
2022-11-02T16:50:37.599Z,99440.06
2022-11-02T16:52:21.715Z,99441.66
2022-11-02T16:53:56.263Z,99440.97
2022-11-02T16:55:41.995Z,99445.66
2022-11-02T16:57:19.519Z,99455.72
2022-11-02T16:58:59.603Z,99452.63
2022-11-02T17:00:32.976Z,99462.59
2022-11-02T17:02:13.084Z,99462.03
2022-11-02T17:03:46.661Z,99455.13
2022-11-02T17:05:23.059Z,99454.56
2022-11-02T17:07:13.266Z,99458.59
2022-11-02T17:08:53.156Z,99463.47
2022-11-02T17:10:30.117Z,99457.75
2022-11-02T17:12:08.939Z,99465.75
2022-11-02T17:13:47.741Z,99462.69
2022-11-02T17:15:23.803Z,99465.63
2022-11-02T17:17:02.618Z,99466.06
2022-11-02T17:18:36.556Z,99474.31
2022-11-02T17:20:22.169Z,99466.47
2022-11-02T17:22:06.509Z,99472.06
2022-11-02T17:23:41.497Z,99468.28
2022-11-02T17:25:21.987Z,99470.22
2022-11-02T17:27:20.140Z,99463.50
2022-11-02T17:28:54.607Z,99471.00
2022-11-02T17:30:48.624Z,99462.47
2022-11-02T17:32:23.131Z,99468.19
2022-11-02T17:33:59.851Z,99469.66
2022-11-02T17:35:33.151Z,99463.69
2022-11-02T17:37:07.799Z,99464.03
2022-11-02T17:38:41.465Z,99459.41
2022-11-02T17:40:15.168Z,99474.97
2022-11-02T17:42:11.565Z,99469.91
2022-11-02T17:43:46.154Z,99469.38
2022-11-02T17:45:28.502Z,99465.25
2022-11-02T17:47:02.220Z,99469.88
2022-11-02T17:48:35.550Z,99475.56
2022-11-02T17:50:09.808Z,99474.00
2022-11-02T17:51:43.722Z,99461.94
2022-11-02T17:53:17.539Z,99474.50
2022-11-02T17:54:50.797Z,99465.03
2022-11-02T17:56:23.955Z,99455.25
2022-11-02T17:57:58.251Z,99470.38
2022-11-02T17:59:32.957Z,99470.81
2022-11-02T18:01:07.061Z,99467.81
2022-11-02T18:02:40.950Z,99466.56
2022-11-02T18:04:14.186Z,99463.28
2022-11-02T18:05:50.128Z,99467.19
2022-11-02T18:07:25.060Z,99462.97
2022-11-02T18:09:14.726Z,99459.78
2022-11-02T18:10:49.464Z,99468.00
2022-11-02T18:12:22.699Z,99458.13
2022-11-02T18:13:55.828Z,99475.66
2022-11-02T18:15:33.554Z,99477.59
2022-11-02T18:17:06.995Z,99469.78
2022-11-02T18:18:40.201Z,99474.41
2022-11-02T18:20:14.858Z,99476.28
2022-11-02T18:21:48.115Z,99473.91
2022-11-02T18:23:21.409Z,99473.91
2022-11-02T18:24:54.664Z,99472.34
2022-11-02T18:26:27.855Z,99474.47
2022-11-02T18:28:02.624Z,99472.09
2022-11-02T18:29:36.021Z,99472.03
2022-11-02T18:31:10.823Z,99478.28
2022-11-02T18:32:46.194Z,99491.59
2022-11-02T18:34:19.409Z,99481.38
2022-11-02T18:35:52.827Z,99480.66
2022-11-02T18:37:26.139Z,99486.56
2022-11-02T18:38:59.420Z,99487.00
2022-11-02T18:40:35.332Z,99476.94
2022-11-02T18:42:09.088Z,99484.25
2022-11-02T18:43:42.267Z,99487.94
2022-11-02T18:45:16.820Z,99489.72
2022-11-02T18:46:51.435Z,99484.25
2022-11-02T18:48:25.215Z,99493.75
2022-11-02T18:49:58.466Z,99484.25
2022-11-02T18:51:31.873Z,99488.13
2022-11-02T18:53:05.017Z,99489.44
2022-11-02T18:54:38.574Z,99487.16
2022-11-02T18:56:12.561Z,99497.47
2022-11-02T18:57:46.276Z,99484.44
2022-11-02T18:59:19.533Z,99499.22
2022-11-02T19:00:53.016Z,99490.66
2022-11-02T19:02:27.796Z,99480.81
2022-11-02T19:04:01.921Z,99493.44
2022-11-02T19:05:52.485Z,99493.25
2022-11-02T19:07:43.632Z,99494.47
2022-11-02T19:09:21.577Z,99492.56
2022-11-02T19:10:54.739Z,99500.34
2022-11-02T19:12:30.132Z,99493.31
2022-11-02T19:14:05.168Z,99493.72
2022-11-02T19:15:42.338Z,99499.47
2022-11-02T19:17:16.487Z,99495.09
2022-11-02T19:18:51.504Z,99502.06
2022-11-02T19:20:24.652Z,99501.03
2022-11-02T19:21:58.238Z,99500.72
2022-11-02T19:23:31.516Z,99503.44
2022-11-02T19:25:05.370Z,99507.63
2022-11-02T19:26:38.766Z,99504.78